createdAt,value
2019-05-29T00:00:59.057Z,11.31
2019-05-29T00:02:10.128Z,11.25
2019-05-29T00:03:21.087Z,11.26
2019-05-29T00:04:31.054Z,11.25
2019-05-29T00:05:40.823Z,11.22
2019-05-29T00:06:50.320Z,11.23
2019-05-29T00:07:59.784Z,11.25
2019-05-29T00:09:10.790Z,11.2
2019-05-29T00:10:21.892Z,11.22
2019-05-29T00:11:31.853Z,11.22
2019-05-29T00:12:41.810Z,11.19
2019-05-29T00:13:51.780Z,11.27
2019-05-29T00:15:01.488Z,11.18
2019-05-29T00:16:12.750Z,11.18
2019-05-29T00:17:23.773Z,11.2
2019-05-29T00:18:33.481Z,11.25
2019-05-29T00:19:43.439Z,11.22
2019-05-29T00:20:52.885Z,11.1
2019-05-29T00:22:02.587Z,11.18
2019-05-29T00:23:14.978Z,11.12
2019-05-29T00:24:27.614Z,11.12
2019-05-29T00:25:37.063Z,11.16
2019-05-29T00:26:47.010Z,11.13
2019-05-29T00:27:56.468Z,11.16
2019-05-29T00:29:07.332Z,11.1
2019-05-29T00:30:19.429Z,11.15
2019-05-29T00:31:29.396Z,11.16
2019-05-29T00:32:39.900Z,11.1
2019-05-29T00:33:49.433Z,11.15
2019-05-29T00:34:59.155Z,11.13
2019-05-29T00:36:10.334Z,11.15
2019-05-29T00:37:21.471Z,11.12
2019-05-29T00:38:31.428Z,11.12
2019-05-29T00:39:41.381Z,11.12
2019-05-29T00:40:51.082Z,11.12
2019-05-29T00:42:00.542Z,11.05
2019-05-29T00:43:13.172Z,11.18
2019-05-29T00:44:38.123Z,11.2
2019-05-29T00:45:48.080Z,11.13
2019-05-29T00:46:58.082Z,11.2
2019-05-29T00:48:08.056Z,11.07
2019-05-29T00:49:20.435Z,11.1
2019-05-29T00:50:29.878Z,11.08
2019-05-29T00:51:40.572Z,11.04
2019-05-29T00:52:50.532Z,11.04
2019-05-29T00:53:59.981Z,11.07
2019-05-29T00:55:11.080Z,11.07
2019-05-29T00:56:22.273Z,11.1
2019-05-29T00:57:32.219Z,11.04
2019-05-29T00:58:43.929Z,11.01
2019-05-29T00:59:53.902Z,11.02
2019-05-29T01:01:03.855Z,11.08
2019-05-29T01:02:16.124Z,11.01
2019-05-29T01:03:27.352Z,10.97
2019-05-29T01:04:37.325Z,11.1
2019-05-29T01:05:47.039Z,11
2019-05-29T01:06:56.746Z,11.02
2019-05-29T01:08:06.506Z,11.08
2019-05-29T01:09:19.192Z,11.02
2019-05-29T01:10:29.160Z,10.97
2019-05-29T01:11:39.113Z,10.98
2019-05-29T01:12:49.091Z,10.95
2019-05-29T01:13:59.194Z,11
2019-05-29T01:15:09.142Z,11.07
2019-05-29T01:16:20.172Z,11.1
2019-05-29T01:17:30.128Z,10.95
2019-05-29T01:18:40.099Z,11
2019-05-29T01:19:49.808Z,10.95
2019-05-29T01:20:59.510Z,11
2019-05-29T01:22:09.471Z,10.94
2019-05-29T01:23:20.503Z,10.97
2019-05-29T01:24:30.195Z,10.95
2019-05-29T01:25:40.150Z,11.01
2019-05-29T01:26:50.112Z,10.95
2019-05-29T01:28:00.070Z,11.04
2019-05-29T01:29:09.771Z,10.95
2019-05-29T01:30:23.308Z,10.95
2019-05-29T01:31:33.066Z,10.97
2019-05-29T01:32:43.106Z,10.95
2019-05-29T01:33:53.060Z,10.92
2019-05-29T01:35:02.754Z,11
2019-05-29T01:36:13.786Z,10.97
2019-05-29T01:37:24.808Z,11.01
2019-05-29T01:38:34.509Z,10.92
2019-05-29T01:39:44.459Z,10.97
2019-05-29T01:40:53.901Z,10.97
2019-05-29T01:42:03.877Z,11.04
2019-05-29T01:43:15.247Z,10.92
2019-05-29T01:44:27.702Z,10.9
2019-05-29T01:45:37.981Z,11
2019-05-29T01:46:47.942Z,10.94
2019-05-29T01:47:57.628Z,10.98
2019-05-29T01:49:07.576Z,10.97
2019-05-29T01:50:18.034Z,10.87
2019-05-29T01:51:30.414Z,11.04
2019-05-29T01:52:40.357Z,11
2019-05-29T01:53:50.052Z,11.05
2019-05-29T01:54:59.743Z,10.98
2019-05-29T01:56:09.687Z,11
2019-05-29T01:57:21.519Z,11.02
2019-05-29T01:58:32.799Z,10.95
2019-05-29T01:59:42.752Z,10.9
2019-05-29T02:00:52.701Z,11
2019-05-29T02:02:02.662Z,10.92
2019-05-29T02:03:12.413Z,10.97
2019-05-29T02:04:24.616Z,10.9
2019-05-29T02:05:35.965Z,10.92
2019-05-29T02:06:45.912Z,10.9
2019-05-29T02:07:55.957Z,10.97
2019-05-29T02:09:05.960Z,10.83
2019-05-29T02:10:15.962Z,10.86
2019-05-29T02:11:26.116Z,10.86
2019-05-29T02:12:39.793Z,10.87
2019-05-29T02:13:49.740Z,10.8
2019-05-29T02:14:59.744Z,10.86
2019-05-29T02:16:09.466Z,10.83
2019-05-29T02:17:21.716Z,10.87
2019-05-29T02:18:31.844Z,10.82
2019-05-29T02:19:41.558Z,10.86
2019-05-29T02:20:51.009Z,10.9
2019-05-29T02:22:00.949Z,10.86
2019-05-29T02:23:10.898Z,10.89
2019-05-29T02:24:21.823Z,10.87
2019-05-29T02:25:32.819Z,10.89
2019-05-29T02:26:42.264Z,10.82
2019-05-29T02:27:51.736Z,10.82
2019-05-29T02:29:01.193Z,10.86
2019-05-29T02:30:11.031Z,10.86
2019-05-29T02:31:28.748Z,10.82
2019-05-29T02:32:38.304Z,10.83
2019-05-29T02:33:48.276Z,10.87
2019-05-29T02:34:58.226Z,10.84
2019-05-29T02:36:08.241Z,10.86
2019-05-29T02:37:18.284Z,10.89
2019-05-29T02:38:33.425Z,10.86
2019-05-29T02:39:43.380Z,10.87
2019-05-29T02:40:52.857Z,10.79
2019-05-29T02:42:02.887Z,10.83
2019-05-29T02:43:12.856Z,10.77
2019-05-29T02:44:29.231Z,10.83
2019-05-29T02:45:58.207Z,10.77
2019-05-29T02:47:07.955Z,10.86
2019-05-29T02:48:17.915Z,10.76
2019-05-29T02:49:32.608Z,10.79
2019-05-29T02:50:42.584Z,10.77
2019-05-29T02:51:52.040Z,10.79
2019-05-29T02:53:01.809Z,10.82
2019-05-29T02:54:11.772Z,10.8
2019-05-29T02:55:24.355Z,10.82
2019-05-29T02:56:36.334Z,10.83
2019-05-29T02:57:50.169Z,10.86
2019-05-29T02:59:00.125Z,10.84
2019-05-29T03:00:10.105Z,10.84
2019-05-29T03:01:21.450Z,10.84
2019-05-29T03:02:36.809Z,10.84
2019-05-29T03:03:46.536Z,10.86
2019-05-29T03:04:56.241Z,10.84
2019-05-29T03:06:05.972Z,10.84
2019-05-29T03:07:15.708Z,10.89
2019-05-29T03:08:29.918Z,10.8
2019-05-29T03:09:41.941Z,10.83
2019-05-29T03:10:51.649Z,10.9
2019-05-29T03:12:05.045Z,10.86
2019-05-29T03:13:14.769Z,10.84
2019-05-29T03:14:25.884Z,10.79
2019-05-29T03:15:39.732Z,10.79
2019-05-29T03:16:49.708Z,10.83
2019-05-29T03:17:58.944Z,10.83
2019-05-29T03:19:08.649Z,10.82
2019-05-29T03:20:18.607Z,10.86
2019-05-29T03:21:32.390Z,10.86
2019-05-29T03:22:42.575Z,10.82
2019-05-29T03:23:52.046Z,10.83
2019-05-29T03:25:02.018Z,10.83
2019-05-29T03:26:11.986Z,10.75
2019-05-29T03:27:21.757Z,10.83
2019-05-29T03:28:38.166Z,10.82
2019-05-29T03:29:48.152Z,10.89
2019-05-29T03:30:58.139Z,10.82
2019-05-29T03:32:13.608Z,10.79
2019-05-29T03:33:24.604Z,10.77
2019-05-29T03:34:53.558Z,10.86
2019-05-29T03:36:03.586Z,10.86
2019-05-29T03:37:13.604Z,10.8
2019-05-29T03:38:23.599Z,10.77
2019-05-29T03:39:38.531Z,10.8
2019-05-29T03:40:48.570Z,10.76
2019-05-29T03:41:58.527Z,10.75
2019-05-29T03:43:08.240Z,10.76
2019-05-29T03:44:17.965Z,10.72
2019-05-29T03:45:31.196Z,10.69
2019-05-29T03:46:50.533Z,10.86
2019-05-29T03:48:00.262Z,10.83
2019-05-29T03:49:09.988Z,10.77
2019-05-29T03:50:20.583Z,10.75
2019-05-29T03:51:38.768Z,10.76
2019-05-29T03:52:48.659Z,10.84
2019-05-29T03:53:58.397Z,10.92
2019-05-29T03:55:08.394Z,10.84
2019-05-29T03:56:18.118Z,10.9
2019-05-29T03:57:29.431Z,10.9
2019-05-29T03:58:43.333Z,10.83
2019-05-29T03:59:53.057Z,10.89
2019-05-29T04:01:03.020Z,10.84
2019-05-29T04:02:13.046Z,10.86
2019-05-29T04:03:22.750Z,10.82
2019-05-29T04:04:40.284Z,10.89
2019-05-29T04:05:50.032Z,10.9
2019-05-29T04:07:00.002Z,10.86
2019-05-29T04:08:09.752Z,10.87
2019-05-29T04:09:19.731Z,10.84
2019-05-29T04:10:32.063Z,10.87
2019-05-29T04:11:45.147Z,10.9
2019-05-29T04:12:55.095Z,10.9
2019-05-29T04:14:05.041Z,10.92
2019-05-29T04:15:14.745Z,10.9
2019-05-29T04:16:24.741Z,10.82
2019-05-29T04:17:59.293Z,10.83
2019-05-29T04:19:09.260Z,10.86
2019-05-29T04:20:18.978Z,10.9
2019-05-29T04:21:32.060Z,10.94
2019-05-29T04:22:44.128Z,10.89
2019-05-29T04:23:54.115Z,10.86
2019-05-29T04:25:03.820Z,10.87
2019-05-29T04:26:13.787Z,10.87
2019-05-29T04:27:23.763Z,10.89
2019-05-29T04:28:41.343Z,10.87
2019-05-29T04:29:51.338Z,10.86
2019-05-29T04:31:01.041Z,10.83
2019-05-29T04:32:11.052Z,10.9
2019-05-29T04:33:20.781Z,10.86
2019-05-29T04:34:34.206Z,10.87
2019-05-29T04:35:47.205Z,10.9
2019-05-29T04:36:57.148Z,10.83
2019-05-29T04:38:07.099Z,10.89
2019-05-29T04:39:16.842Z,10.86
2019-05-29T04:40:26.573Z,10.97
2019-05-29T04:41:41.228Z,10.97
2019-05-29T04:42:50.966Z,10.98
2019-05-29T04:44:02.095Z,10.92
2019-05-29T04:45:12.069Z,10.98
2019-05-29T04:46:22.045Z,11
2019-05-29T04:47:37.195Z,11.04
2019-05-29T04:48:47.335Z,10.98
2019-05-29T04:49:57.318Z,10.95
2019-05-29T04:51:07.045Z,11.07
2019-05-29T04:52:17.063Z,10.95
2019-05-29T04:53:26.825Z,11.1
2019-05-29T04:54:42.003Z,10.95
2019-05-29T04:55:51.977Z,10.98
2019-05-29T04:57:01.677Z,11.05
2019-05-29T04:58:11.644Z,11.01
2019-05-29T04:59:21.614Z,11.1
2019-05-29T05:00:31.911Z,11.15
2019-05-29T05:01:44.127Z,11.15
2019-05-29T05:02:53.833Z,11.13
2019-05-29T05:04:03.788Z,11.16
2019-05-29T05:05:13.244Z,11.18
2019-05-29T05:06:26.814Z,11.23
2019-05-29T05:07:37.844Z,11.2
2019-05-29T05:08:47.535Z,11.22
2019-05-29T05:09:57.486Z,11.27
2019-05-29T05:11:07.481Z,11.3
2019-05-29T05:12:17.445Z,11.31
2019-05-29T05:13:26.900Z,11.43
2019-05-29T05:14:37.873Z,11.41
2019-05-29T05:15:47.825Z,11.49
2019-05-29T05:16:57.790Z,11.45
2019-05-29T05:18:07.768Z,11.44
2019-05-29T05:19:19.438Z,11.45
2019-05-29T05:20:29.925Z,11.55
2019-05-29T05:21:42.659Z,11.55
2019-05-29T05:22:52.610Z,11.59
2019-05-29T05:24:02.573Z,11.58
2019-05-29T05:25:12.536Z,11.63
2019-05-29T05:26:22.708Z,11.63
2019-05-29T05:27:32.643Z,11.7
2019-05-29T05:28:48.943Z,11.63
2019-05-29T05:29:58.934Z,11.68
2019-05-29T05:31:08.386Z,11.68
2019-05-29T05:32:18.322Z,11.62
2019-05-29T05:33:28.291Z,11.74
2019-05-29T05:34:39.323Z,11.76
2019-05-29T05:35:49.063Z,11.77
2019-05-29T05:36:59.015Z,11.73
2019-05-29T05:38:08.968Z,11.7
2019-05-29T05:39:18.388Z,11.62
2019-05-29T05:40:28.887Z,11.63
2019-05-29T05:41:43.846Z,11.62
2019-05-29T05:42:53.571Z,11.73
2019-05-29T05:44:03.274Z,11.74
2019-05-29T05:45:12.988Z,11.76
2019-05-29T05:46:24.734Z,11.86
2019-05-29T05:48:00.102Z,11.77
2019-05-29T05:49:09.806Z,11.85
2019-05-29T05:50:19.764Z,11.95
2019-05-29T05:51:29.723Z,11.95
2019-05-29T05:52:47.410Z,11.93
2019-05-29T05:53:57.123Z,11.91
2019-05-29T05:55:06.820Z,11.96
2019-05-29T05:56:16.550Z,12.02
2019-05-29T05:57:26.507Z,11.96
2019-05-29T05:58:37.718Z,12.05
2019-05-29T05:59:47.546Z,12.2
2019-05-29T06:00:57.497Z,12.15
2019-05-29T06:02:07.217Z,12.29
2019-05-29T06:03:16.688Z,12.3
2019-05-29T06:04:26.643Z,12.32
2019-05-29T06:05:38.506Z,12.3
2019-05-29T06:06:49.886Z,12.26
2019-05-29T06:07:59.596Z,12.33
2019-05-29T06:09:09.568Z,12.4
2019-05-29T06:10:19.606Z,12.37
2019-05-29T06:11:29.609Z,12.48
2019-05-29T06:12:41.068Z,12.53
2019-05-29T06:13:50.797Z,12.48
2019-05-29T06:15:00.496Z,12.53
2019-05-29T06:16:09.964Z,12.53
2019-05-29T06:17:21.922Z,12.54
2019-05-29T06:18:32.346Z,12.53
2019-05-29T06:19:43.816Z,12.5
2019-05-29T06:20:53.510Z,12.57
2019-05-29T06:22:03.026Z,12.63
2019-05-29T06:23:12.753Z,12.58
2019-05-29T06:24:22.745Z,12.66
2019-05-29T06:25:33.780Z,12.55
2019-05-29T06:26:48.828Z,12.51
2019-05-29T06:27:58.785Z,12.51
2019-05-29T06:29:08.806Z,12.48
2019-05-29T06:30:18.762Z,12.47
2019-05-29T06:31:33.202Z,12.5
2019-05-29T06:32:45.751Z,12.47
2019-05-29T06:33:55.709Z,12.54
2019-05-29T06:35:05.679Z,12.57
2019-05-29T06:36:15.882Z,12.68
2019-05-29T06:37:25.836Z,12.65
2019-05-29T06:38:36.065Z,12.62
2019-05-29T06:39:49.348Z,12.48
2019-05-29T06:40:59.065Z,12.53
2019-05-29T06:42:09.044Z,12.57
2019-05-29T06:43:19.087Z,12.53
2019-05-29T06:44:29.091Z,12.53
2019-05-29T06:45:40.616Z,12.54
2019-05-29T06:46:51.727Z,12.5
2019-05-29T06:48:01.464Z,12.48
2019-05-29T06:49:10.942Z,12.39
2019-05-29T06:50:20.953Z,12.36
2019-05-29T06:51:30.670Z,12.37
2019-05-29T06:52:41.860Z,12.37
2019-05-29T06:53:53.252Z,12.37
2019-05-29T06:55:03.201Z,12.32
2019-05-29T06:56:13.092Z,12.32
2019-05-29T06:57:28.327Z,12.32
2019-05-29T06:58:38.346Z,12.33
2019-05-29T06:59:51.271Z,12.33
2019-05-29T07:01:01.242Z,12.4
2019-05-29T07:02:10.956Z,12.35
2019-05-29T07:03:21.042Z,12.32
2019-05-29T07:04:30.998Z,12.43
2019-05-29T07:05:46.269Z,12.39
2019-05-29T07:07:00.489Z,12.4
2019-05-29T07:08:44.855Z,12.39
2019-05-29T07:09:57.729Z,12.44
2019-05-29T07:11:07.501Z,12.53
2019-05-29T07:12:17.211Z,12.53
2019-05-29T07:13:26.702Z,12.69
2019-05-29T07:14:41.119Z,12.73
2019-05-29T07:15:52.142Z,12.81
2019-05-29T07:17:02.112Z,12.63
2019-05-29T07:18:11.836Z,12.75
2019-05-29T07:20:00.353Z,12.76
2019-05-29T07:21:12.669Z,13.03
2019-05-29T07:22:22.178Z,12.93
2019-05-29T07:23:32.182Z,13.02
2019-05-29T07:24:44.921Z,12.94
2019-05-29T07:25:55.004Z,13.05
2019-05-29T07:27:05.017Z,13.21
2019-05-29T07:28:20.961Z,13.17
2019-05-29T07:29:30.907Z,13.37
2019-05-29T07:30:53.370Z,13.39
2019-05-29T07:32:11.335Z,13.39
2019-05-29T07:33:21.134Z,13.37
2019-05-29T07:34:30.843Z,13.42
2019-05-29T07:36:08.724Z,13.43
2019-05-29T07:37:18.439Z,13.46
2019-05-29T07:38:28.219Z,13.58
2019-05-29T07:39:39.368Z,13.55
2019-05-29T07:40:52.742Z,13.65
2019-05-29T07:42:02.444Z,13.65
2019-05-29T07:43:12.149Z,13.67
2019-05-29T07:44:22.186Z,13.61
2019-05-29T07:45:32.151Z,13.75
2019-05-29T07:46:45.244Z,13.73
2019-05-29T07:47:56.612Z,13.91
2019-05-29T07:49:06.592Z,13.89
2019-05-29T07:50:16.322Z,13.91
2019-05-29T07:51:25.821Z,14.01
2019-05-29T07:52:35.344Z,13.97
2019-05-29T07:53:49.249Z,14.01
2019-05-29T07:54:59.006Z,14.07
2019-05-29T07:56:23.943Z,14
2019-05-29T07:57:33.929Z,13.95
2019-05-29T07:59:02.808Z,13.93
2019-05-29T08:00:13.245Z,14.03
2019-05-29T08:01:23.241Z,13.98
2019-05-29T08:02:35.877Z,13.98
2019-05-29T08:03:49.875Z,13.97
2019-05-29T08:04:59.617Z,13.97
2019-05-29T08:06:09.874Z,14.08
2019-05-29T08:07:19.870Z,14.28
2019-05-29T08:08:29.845Z,14.2
2019-05-29T08:09:39.835Z,14.31
2019-05-29T08:10:52.440Z,14.31
2019-05-29T08:12:01.926Z,14.43
2019-05-29T08:13:11.654Z,14.49
2019-05-29T08:14:21.229Z,14.52
2019-05-29T08:15:30.956Z,14.48
2019-05-29T08:16:59.091Z,14.13
2019-05-29T08:18:08.841Z,14.07
2019-05-29T08:19:18.837Z,14.16
2019-05-29T08:20:28.837Z,14.18
2019-05-29T08:21:40.795Z,14.04
2019-05-29T08:22:53.865Z,14.03
2019-05-29T08:24:03.832Z,14.01
2019-05-29T08:25:13.537Z,14.08
2019-05-29T08:26:23.556Z,13.98
2019-05-29T08:27:33.285Z,13.98
2019-05-29T08:28:44.376Z,13.94
2019-05-29T08:29:56.344Z,14.07
2019-05-29T08:31:06.043Z,14.01
2019-05-29T08:32:15.514Z,14.11
2019-05-29T08:33:24.780Z,14.26
2019-05-29T08:34:34.502Z,14.31
2019-05-29T08:35:55.513Z,14.56
2019-05-29T08:37:12.075Z,14.68
2019-05-29T08:38:22.033Z,14.86
2019-05-29T08:39:41.307Z,14.94
2019-05-29T08:40:52.423Z,15.02
2019-05-29T08:42:26.502Z,15.02
2019-05-29T08:43:36.206Z,14.89
2019-05-29T08:44:49.739Z,14.93
2019-05-29T08:45:59.728Z,14.68
2019-05-29T08:47:15.395Z,14.62
2019-05-29T08:48:25.386Z,14.48
2019-05-29T08:49:34.849Z,14.53
2019-05-29T08:50:45.407Z,14.51
2019-05-29T08:52:13.774Z,14.61
2019-05-29T08:53:23.736Z,14.49
2019-05-29T08:54:33.764Z,14.3
2019-05-29T08:55:44.477Z,14.22
2019-05-29T08:56:55.614Z,14.34
2019-05-29T08:58:05.617Z,14.44
2019-05-29T08:59:15.322Z,14.55
2019-05-29T09:00:25.356Z,14.51
2019-05-29T09:01:35.362Z,14.59
2019-05-29T09:02:46.488Z,14.62
2019-05-29T09:03:58.466Z,14.82
2019-05-29T09:05:08.134Z,14.9
2019-05-29T09:06:18.354Z,15.11
2019-05-29T09:07:28.074Z,15.25
2019-05-29T09:08:38.027Z,15.51
2019-05-29T09:09:51.106Z,16.09
2019-05-29T09:11:01.337Z,16.62
2019-05-29T09:12:10.569Z,16.99
2019-05-29T09:13:20.299Z,17.22
2019-05-29T09:14:30.247Z,17.66
2019-05-29T09:15:39.733Z,18.11
2019-05-29T09:16:49.454Z,18.67
2019-05-29T09:18:00.024Z,19.05
2019-05-29T09:19:09.985Z,19.47
2019-05-29T09:21:04.277Z,20.02
2019-05-29T09:22:14.971Z,20.32
2019-05-29T09:23:28.087Z,20.27
2019-05-29T09:24:38.048Z,20
2019-05-29T09:25:47.525Z,19.41
2019-05-29T09:26:57.237Z,19.35
2019-05-29T09:28:07.225Z,19.71
2019-05-29T09:29:27.152Z,19.74
2019-05-29T09:30:37.109Z,19.52
2019-05-29T09:31:47.065Z,19.38
2019-05-29T09:32:58.005Z,19.29
2019-05-29T09:34:07.775Z,19.55
2019-05-29T09:35:25.054Z,19.89
2019-05-29T09:36:35.081Z,19.96
2019-05-29T09:37:45.055Z,20.56
2019-05-29T09:38:55.468Z,21.3
2019-05-29T09:40:05.263Z,21.54
2019-05-29T09:41:16.113Z,21.59
2019-05-29T09:42:28.338Z,21.29
2019-05-29T09:43:38.085Z,20.73
2019-05-29T09:45:05.775Z,20.6
2019-05-29T09:46:20.081Z,20.1
2019-05-29T09:47:31.139Z,19.7
2019-05-29T09:48:54.464Z,19.38
2019-05-29T09:50:06.803Z,19.53
2019-05-29T09:53:25.170Z,20.59
2019-05-29T09:54:35.655Z,20.29
2019-05-29T09:55:45.401Z,20.46
2019-05-29T09:56:58.223Z,20.78
2019-05-29T09:58:10.426Z,21.28
2019-05-29T09:59:20.146Z,21.58
2019-05-29T10:00:29.882Z,21.32
2019-05-29T10:01:39.364Z,21.48
2019-05-29T10:02:48.598Z,21.28
2019-05-29T10:04:06.440Z,21.69
2019-05-29T10:05:16.195Z,22.16
2019-05-29T10:06:26.169Z,22.44
2019-05-29T10:07:35.697Z,22.76
2019-05-29T10:08:45.178Z,22.61
2019-05-29T10:09:58.717Z,23.16
2019-05-29T10:11:15.721Z,23.69
2019-05-29T10:12:25.430Z,24.16
2019-05-29T10:13:35.495Z,24.58
2019-05-29T10:14:44.960Z,24.06
2019-05-29T10:16:05.247Z,23.92
2019-05-29T10:17:17.849Z,24.19
2019-05-29T10:18:37.143Z,24.47
2019-05-29T10:19:47.119Z,23.94
2019-05-29T10:20:59.651Z,23.74
2019-05-29T10:22:10.718Z,24.25
2019-05-29T10:23:22.554Z,24.85
2019-05-29T10:24:34.915Z,24.84
2019-05-29T10:25:44.941Z,25.14
2019-05-29T10:26:55.533Z,25.51
2019-05-29T10:28:10.953Z,25.36
2019-05-29T10:29:20.767Z,25.18
2019-05-29T10:30:30.506Z,24.88
2019-05-29T10:31:41.877Z,24.69
2019-05-29T10:32:57.777Z,24.79
2019-05-29T10:34:07.796Z,24.75
2019-05-29T10:35:17.887Z,24.03
2019-05-29T10:36:27.888Z,23.2
2019-05-29T10:37:37.865Z,23.18
2019-05-29T10:38:49.178Z,22.93
2019-05-29T10:40:00.061Z,22.52
2019-05-29T10:41:12.116Z,22.37
2019-05-29T10:42:25.371Z,22.74
2019-05-29T10:43:38.980Z,23.21
2019-05-29T10:44:51.443Z,23.56
2019-05-29T10:46:00.936Z,23.54
2019-05-29T10:47:10.440Z,23.23
2019-05-29T10:48:20.442Z,23.23
2019-05-29T10:49:30.461Z,23.52
2019-05-29T10:50:40.422Z,24.16
2019-05-29T10:52:19.750Z,24.77
2019-05-29T10:53:29.482Z,25.4
2019-05-29T10:54:41.719Z,25.83
2019-05-29T10:55:52.922Z,26.08
2019-05-29T10:57:02.899Z,26.01
2019-05-29T10:58:12.689Z,25.88
2019-05-29T10:59:22.915Z,25.77
2019-05-29T11:00:32.884Z,25.8
2019-05-29T11:01:47.577Z,25.51
2019-05-29T11:03:01.971Z,24.69
2019-05-29T11:04:11.983Z,24.31
2019-05-29T11:05:21.973Z,24
2019-05-29T11:06:31.737Z,23.74
2019-05-29T11:07:45.768Z,23.88
2019-05-29T11:08:58.655Z,24.19
2019-05-29T11:10:08.739Z,24.61
2019-05-29T11:11:21.207Z,25.44
2019-05-29T11:12:31.209Z,25.86
2019-05-29T11:13:44.712Z,26.26
2019-05-29T11:14:57.367Z,26.66
2019-05-29T11:16:25.645Z,26.53
2019-05-29T11:17:34.888Z,26.41
2019-05-29T11:18:44.938Z,26.01
2019-05-29T11:19:58.203Z,26.06
2019-05-29T11:21:08.344Z,25.78
2019-05-29T11:22:30.974Z,25.51
2019-05-29T11:23:40.453Z,25.26
2019-05-29T11:24:50.434Z,25.14
2019-05-29T11:26:02.760Z,24.88
2019-05-29T11:27:12.785Z,25.24
2019-05-29T11:28:22.241Z,25.7
2019-05-29T11:29:32.204Z,26.33
2019-05-29T11:30:41.983Z,27.2
2019-05-29T11:31:53.365Z,28.12
2019-05-29T11:33:06.280Z,28.64
2019-05-29T11:34:16.052Z,29.02
2019-05-29T11:35:26.042Z,29.13
2019-05-29T11:36:35.736Z,29.67
2019-05-29T11:37:45.705Z,29.94
2019-05-29T11:39:02.938Z,30.08
2019-05-29T11:40:14.003Z,30.4
2019-05-29T11:41:31.138Z,30.4
2019-05-29T11:42:41.100Z,30.32
2019-05-29T11:43:51.074Z,29.3
2019-05-29T11:45:03.615Z,28.15
2019-05-29T11:46:14.008Z,27.94
2019-05-29T11:47:24.101Z,27.95
2019-05-29T11:48:34.104Z,27.55
2019-05-29T11:49:44.216Z,26.68
2019-05-29T11:50:54.825Z,26.19
2019-05-29T11:52:44.599Z,25.73
2019-05-29T11:53:57.408Z,25.44
2019-05-29T11:55:12.148Z,26.03
2019-05-29T11:56:22.161Z,26.19
2019-05-29T11:57:32.174Z,26.23
2019-05-29T11:58:44.960Z,26.89
2019-05-29T12:00:00.040Z,27.6
2019-05-29T12:01:26.855Z,28
2019-05-29T12:02:59.533Z,27.01
2019-05-29T12:04:29.507Z,27.01
2019-05-29T12:05:39.482Z,26.76
2019-05-29T12:06:48.960Z,27.07
2019-05-29T12:08:01.738Z,27.67
2019-05-29T12:09:12.217Z,27.53
2019-05-29T12:10:40.122Z,27.52
2019-05-29T12:11:51.613Z,28.13
2019-05-29T12:13:04.402Z,28.18
2019-05-29T12:14:14.202Z,28.37
2019-05-29T12:15:23.957Z,27.91
2019-05-29T12:16:33.675Z,27.85
2019-05-29T12:17:44.357Z,28.03
2019-05-29T12:18:55.587Z,27.82
2019-05-29T12:20:28.360Z,27.76
2019-05-29T12:21:42.469Z,28.15
2019-05-29T12:23:28.672Z,28.19
2019-05-29T12:24:38.487Z,28.23
2019-05-29T12:25:48.497Z,28.12
2019-05-29T12:27:28.042Z,28
2019-05-29T12:28:37.807Z,27.75
2019-05-29T12:29:47.902Z,26.7
2019-05-29T12:30:59.519Z,26.85
2019-05-29T12:32:15.558Z,26.74
2019-05-29T12:33:25.172Z,26.52
2019-05-29T12:34:34.892Z,25.49
2019-05-29T12:36:01.802Z,24.86
2019-05-29T12:37:11.948Z,25.24
2019-05-29T12:38:21.939Z,25.7
2019-05-29T12:39:31.926Z,26.33
2019-05-29T12:40:41.900Z,26.71
2019-05-29T12:41:53.212Z,26.63
2019-05-29T12:43:06.208Z,27
2019-05-29T12:44:33.660Z,27.63
2019-05-29T12:45:43.700Z,27.73
2019-05-29T12:46:53.537Z,28.06
2019-05-29T12:48:15.181Z,28.49
2019-05-29T12:49:25.676Z,28.82
2019-05-29T12:50:39.406Z,29.09
2019-05-29T12:51:49.367Z,29.42
2019-05-29T12:53:02.033Z,29.22
2019-05-29T12:54:12.011Z,28.31
2019-05-29T12:55:21.987Z,27.55
2019-05-29T12:56:31.983Z,27.29
2019-05-29T12:57:41.978Z,27.48
2019-05-29T12:58:51.962Z,27.16
2019-05-29T13:00:07.755Z,27.25
2019-05-29T13:01:17.725Z,27.4
2019-05-29T13:02:27.707Z,27.34
2019-05-29T13:03:37.702Z,27.28
2019-05-29T13:05:21.604Z,27.75
2019-05-29T13:06:31.560Z,27.94
2019-05-29T13:07:41.281Z,28.15
2019-05-29T13:08:51.285Z,28.37
2019-05-29T13:10:05.215Z,28.49
2019-05-29T13:11:15.197Z,28.72
2019-05-29T13:12:25.215Z,28.82
2019-05-29T13:13:34.990Z,28.94
2019-05-29T13:14:45.016Z,29.15
2019-05-29T13:15:55.012Z,29.12
2019-05-29T13:17:07.617Z,29.24
2019-05-29T13:18:17.640Z,29.37
2019-05-29T13:19:27.614Z,29.58
2019-05-29T13:20:37.373Z,29.67
2019-05-29T13:21:47.367Z,29.24
2019-05-29T13:22:59.472Z,28.08
2019-05-29T13:24:16.255Z,27.35
2019-05-29T13:25:26.365Z,27.23
2019-05-29T13:26:35.861Z,26.97
2019-05-29T13:27:45.832Z,26.44
2019-05-29T13:28:55.566Z,26.55
2019-05-29T13:30:10.878Z,26.82
2019-05-29T13:31:20.853Z,27.19
2019-05-29T13:32:30.862Z,27.53
2019-05-29T13:33:40.350Z,27.71
2019-05-29T13:34:50.120Z,27.04
2019-05-29T13:36:02.555Z,26.37
2019-05-29T13:37:14.760Z,25.81
2019-05-29T13:38:24.487Z,25.52
2019-05-29T13:39:34.617Z,25.63
2019-05-29T13:40:44.097Z,25.26
2019-05-29T13:41:54.065Z,24.61
2019-05-29T13:43:19.925Z,24.85
2019-05-29T13:44:29.630Z,25.34
2019-05-29T13:45:39.380Z,25.39
2019-05-29T13:46:48.848Z,25.52
2019-05-29T13:47:59.298Z,25.88
2019-05-29T13:49:12.070Z,26.19
2019-05-29T13:50:21.781Z,26.59
2019-05-29T13:51:31.520Z,26.92
2019-05-29T13:52:41.266Z,27.13
2019-05-29T13:54:18.070Z,27.44
2019-05-29T13:55:28.379Z,27.76
2019-05-29T13:56:38.706Z,27.88
2019-05-29T13:57:48.571Z,27.98
2019-05-29T13:58:59.770Z,27.93
2019-05-29T14:00:37.276Z,28.03
2019-05-29T14:01:52.737Z,28.3
2019-05-29T14:03:06.977Z,28.46
2019-05-29T14:04:17.293Z,28.59
2019-05-29T14:05:27.023Z,28.77
2019-05-29T14:06:37.009Z,28.82
2019-05-29T14:07:46.725Z,29.03
2019-05-29T14:08:56.774Z,29.27
2019-05-29T14:10:10.606Z,29.42
2019-05-29T14:11:20.571Z,29.43
2019-05-29T14:12:30.034Z,29.57
2019-05-29T14:13:40.102Z,29.65
2019-05-29T14:14:50.065Z,29.73
2019-05-29T14:16:00.545Z,29.81
2019-05-29T14:17:15.212Z,29.73
2019-05-29T14:18:24.935Z,29.71
2019-05-29T14:19:34.664Z,29.95
2019-05-29T14:20:44.666Z,30.16
2019-05-29T14:21:54.758Z,30.51
2019-05-29T14:23:07.320Z,30.49
2019-05-29T14:24:33.238Z,30.62
2019-05-29T14:25:43.459Z,30.77
2019-05-29T14:26:53.522Z,30.95
2019-05-29T14:28:05.027Z,30.96
2019-05-29T14:29:16.676Z,31.11
2019-05-29T14:30:26.409Z,31.14
2019-05-29T14:31:36.139Z,31.15
2019-05-29T14:32:46.161Z,31.32
2019-05-29T14:33:56.287Z,31.29
2019-05-29T14:35:13.298Z,31.2
2019-05-29T14:36:22.959Z,31.26
2019-05-29T14:37:32.698Z,31.25
2019-05-29T14:38:41.669Z,31.32
2019-05-29T14:39:51.393Z,31.3
2019-05-29T14:41:01.689Z,31.18
2019-05-29T14:42:15.015Z,31.13
2019-05-29T14:43:25.092Z,31.13
2019-05-29T14:44:35.068Z,31
2019-05-29T14:45:45.101Z,30.74
2019-05-29T14:46:55.165Z,30.26
2019-05-29T14:48:06.435Z,30.2
2019-05-29T14:49:18.571Z,30.13
2019-05-29T14:50:32.195Z,30.27
2019-05-29T14:51:41.921Z,30.27
2019-05-29T14:52:51.867Z,30.26
2019-05-29T14:54:02.743Z,30.21
2019-05-29T14:55:20.799Z,30.1
2019-05-29T14:56:30.960Z,29.89
2019-05-29T14:57:40.957Z,29.67
2019-05-29T14:58:50.959Z,29.86
2019-05-29T15:00:01.240Z,29.83
2019-05-29T15:01:30.738Z,29.44
2019-05-29T15:02:40.455Z,28.77
2019-05-29T15:03:50.214Z,28.13
2019-05-29T15:05:00.198Z,27.91
2019-05-29T15:06:12.405Z,27.91
2019-05-29T15:07:25.308Z,27.75
2019-05-29T15:08:35.295Z,27.64
2019-05-29T15:09:45.263Z,27.75
2019-05-29T15:10:55.263Z,27.82
2019-05-29T15:12:06.457Z,27.81
2019-05-29T15:13:18.506Z,28.04
2019-05-29T15:14:28.492Z,28.12
2019-05-29T15:15:38.529Z,28.31
2019-05-29T15:16:48.533Z,28.46
2019-05-29T15:17:58.017Z,28.68
2019-05-29T15:19:10.892Z,28.74
2019-05-29T15:20:21.846Z,28.82
2019-05-29T15:21:31.585Z,28.9
2019-05-29T15:22:41.558Z,28.93
2019-05-29T15:23:51.560Z,28.7
2019-05-29T15:25:25.799Z,28.41
2019-05-29T15:26:35.537Z,28.33
2019-05-29T15:27:45.533Z,28.18
2019-05-29T15:28:55.623Z,28.18
2019-05-29T15:30:06.127Z,28.12
2019-05-29T15:31:21.211Z,28.12
2019-05-29T15:32:30.938Z,28.06
2019-05-29T15:33:40.910Z,28.22